createdAt,value
2018-12-13T00:00:30.790Z,3.89
2018-12-13T00:02:57.857Z,3.83
2018-12-13T00:05:25.095Z,3.81
2018-12-13T00:07:52.175Z,3.76
2018-12-13T00:10:19.220Z,3.64
2018-12-13T00:12:46.311Z,3.67
2018-12-13T00:15:16.033Z,3.68
2018-12-13T00:17:43.281Z,3.73
2018-12-13T00:20:10.363Z,3.76
2018-12-13T00:22:37.555Z,3.76
2018-12-13T00:25:04.681Z,3.71
2018-12-13T00:27:31.732Z,3.67
2018-12-13T00:29:59.731Z,3.65
2018-12-13T00:32:26.777Z,3.67
2018-12-13T00:34:53.883Z,3.72
2018-12-13T00:37:20.975Z,3.72
2018-12-13T00:39:48.045Z,3.75
2018-12-13T00:42:15.217Z,3.75
2018-12-13T00:44:42.336Z,3.73
2018-12-13T00:47:09.431Z,3.73
2018-12-13T00:49:36.516Z,3.75
2018-12-13T00:52:03.663Z,3.73
2018-12-13T00:54:32.065Z,3.85
2018-12-13T00:56:59.182Z,3.80
2018-12-13T00:59:26.243Z,3.70
2018-12-13T01:01:53.735Z,3.68
2018-12-13T01:04:21.770Z,3.66
2018-12-13T01:06:48.847Z,3.66
2018-12-13T01:09:15.927Z,3.58
2018-12-13T01:11:43.003Z,3.54
2018-12-13T01:14:10.089Z,3.50
2018-12-13T01:16:37.183Z,3.60
2018-12-13T01:19:04.376Z,2.67
2018-12-13T01:21:31.484Z,3.49
2018-12-13T01:23:58.618Z,3.46
2018-12-13T01:26:25.775Z,3.42
2018-12-13T01:28:52.921Z,3.26
2018-12-13T01:31:20.210Z,3.30
2018-12-13T01:33:47.345Z,3.34
2018-12-13T01:36:16.048Z,3.39
2018-12-13T01:38:43.180Z,3.38
2018-12-13T01:41:10.282Z,3.42
2018-12-13T01:43:37.353Z,3.41
2018-12-13T01:46:04.472Z,3.45
2018-12-13T01:48:31.592Z,3.32
2018-12-13T01:50:58.667Z,3.35
2018-12-13T01:53:27.204Z,3.26
2018-12-13T01:55:54.302Z,3.23
2018-12-13T01:58:21.344Z,3.29
2018-12-13T02:00:48.487Z,3.36
2018-12-13T02:03:15.680Z,3.37
2018-12-13T02:05:42.849Z,3.19
2018-12-13T02:08:09.944Z,3.27
2018-12-13T02:10:36.988Z,3.32
2018-12-13T02:13:04.155Z,3.35
2018-12-13T02:15:32.767Z,3.11
2018-12-13T02:17:59.919Z,3.39
2018-12-13T02:20:27.109Z,3.38
2018-12-13T02:22:54.216Z,3.44
2018-12-13T02:25:21.708Z,3.42
2018-12-13T02:27:48.816Z,3.39
2018-12-13T02:30:17.960Z,3.34
2018-12-13T02:32:45.150Z,3.34
2018-12-13T02:35:12.235Z,3.30
2018-12-13T02:37:39.379Z,3.28
2018-12-13T02:40:06.448Z,3.30
2018-12-13T02:42:33.600Z,3.36
2018-12-13T02:45:00.650Z,3.30
2018-12-13T02:47:27.791Z,3.23
2018-12-13T02:49:54.844Z,3.29
2018-12-13T02:52:21.899Z,3.21
2018-12-13T02:54:48.939Z,3.29
2018-12-13T02:57:16.047Z,3.33
2018-12-13T02:59:43.134Z,3.23
2018-12-13T03:02:10.200Z,3.22
2018-12-13T03:04:37.300Z,3.17
2018-12-13T03:07:04.338Z,3.19
2018-12-13T03:09:31.436Z,3.20
2018-12-13T03:11:58.631Z,3.20
2018-12-13T03:14:25.792Z,3.21
2018-12-13T03:16:53.853Z,3.15
2018-12-13T03:19:21.089Z,3.18
2018-12-13T03:21:48.156Z,3.22
2018-12-13T03:24:15.252Z,3.26
2018-12-13T03:26:42.401Z,3.23
2018-12-13T03:29:09.503Z,3.26
2018-12-13T03:31:36.672Z,3.28
2018-12-13T03:34:03.913Z,3.23
2018-12-13T03:36:31.017Z,1.60
2018-12-13T03:38:58.120Z,3.13
2018-12-13T03:41:25.327Z,3.10
2018-12-13T03:43:53.026Z,3.23
2018-12-13T03:46:20.080Z,3.11
2018-12-13T03:48:47.220Z,2.98
2018-12-13T03:51:14.327Z,2.94
2018-12-13T03:53:41.445Z,2.91
2018-12-13T03:56:08.629Z,2.86
2018-12-13T03:58:35.718Z,2.81
2018-12-13T04:01:02.849Z,2.87
2018-12-13T04:03:29.885Z,2.94
2018-12-13T04:05:56.967Z,2.98
2018-12-13T04:08:24.077Z,3.02
2018-12-13T04:10:51.193Z,2.99
2018-12-13T04:13:18.453Z,3.00
2018-12-13T04:15:46.209Z,3.11
2018-12-13T04:18:13.366Z,3.08
2018-12-13T04:20:40.591Z,3.00
2018-12-13T04:23:07.689Z,1.73
2018-12-13T04:25:34.829Z,2.95
2018-12-13T04:28:02.000Z,2.96
2018-12-13T04:30:29.073Z,2.96
2018-12-13T04:32:56.194Z,2.99
2018-12-13T04:35:23.425Z,2.93
2018-12-13T04:37:50.533Z,2.84
2018-12-13T04:40:17.698Z,2.92
2018-12-13T04:42:44.842Z,2.89
2018-12-13T04:45:11.906Z,2.88
2018-12-13T04:47:39.893Z,2.77
2018-12-13T04:50:06.992Z,2.79
2018-12-13T04:52:34.181Z,2.78
2018-12-13T04:55:01.331Z,2.73
2018-12-13T04:57:28.488Z,2.72
2018-12-13T04:59:55.626Z,2.79
2018-12-13T05:02:22.731Z,2.83
2018-12-13T05:04:49.897Z,2.86
2018-12-13T05:07:17.034Z,2.78
2018-12-13T05:09:44.157Z,2.73
2018-12-13T05:12:11.339Z,2.68
2018-12-13T05:14:38.433Z,2.58
2018-12-13T05:17:05.540Z,2.64
2018-12-13T05:19:32.632Z,2.72
2018-12-13T05:21:59.775Z,2.76
2018-12-13T05:24:26.831Z,2.84
2018-12-13T05:26:53.891Z,2.84
2018-12-13T05:29:20.946Z,2.81
2018-12-13T05:31:48.843Z,2.74
2018-12-13T05:34:15.937Z,2.77
2018-12-13T05:36:43.159Z,2.82
2018-12-13T05:39:10.245Z,2.84
2018-12-13T05:41:37.336Z,2.71
2018-12-13T05:49:03.716Z,2.64
2018-12-13T05:51:30.952Z,2.60
2018-12-13T05:53:58.099Z,2.65
2018-12-13T05:56:25.247Z,2.69
2018-12-13T05:58:52.319Z,2.64
2018-12-13T06:01:19.416Z,2.60
2018-12-13T06:03:46.486Z,2.62
2018-12-13T06:06:13.606Z,2.65
2018-12-13T06:08:40.679Z,2.66
2018-12-13T06:11:07.697Z,2.65
2018-12-13T06:13:34.784Z,2.64
2018-12-13T06:16:01.875Z,2.61
2018-12-13T06:18:28.954Z,2.56
2018-12-13T06:20:56.026Z,2.50
2018-12-13T06:23:23.123Z,2.45
2018-12-13T06:25:50.582Z,2.44
2018-12-13T06:28:17.857Z,2.40
2018-12-13T06:30:45.107Z,2.44
2018-12-13T06:33:12.273Z,2.51
2018-12-13T06:35:39.491Z,2.54
2018-12-13T06:38:06.793Z,2.58
2018-12-13T06:40:34.018Z,2.54
2018-12-13T06:43:01.132Z,2.17
2018-12-13T06:45:28.247Z,2.52
2018-12-13T06:47:55.287Z,2.48
2018-12-13T06:50:22.396Z,2.49
2018-12-13T06:52:49.573Z,2.52
2018-12-13T06:55:16.739Z,2.60
2018-12-13T06:57:43.868Z,2.52
2018-12-13T07:00:11.020Z,2.49
2018-12-13T07:02:38.150Z,2.45
2018-12-13T07:05:05.447Z,2.34
2018-12-13T07:07:32.851Z,2.41
2018-12-13T07:09:59.939Z,2.52
2018-12-13T07:12:27.660Z,2.56
2018-12-13T07:14:54.951Z,2.36
2018-12-13T07:17:22.020Z,2.32
2018-12-13T07:19:49.304Z,2.37
2018-12-13T07:22:16.420Z,2.48
2018-12-13T07:24:43.498Z,2.45
2018-12-13T07:27:10.563Z,2.52
2018-12-13T07:29:37.696Z,2.44
2018-12-13T07:32:05.403Z,2.43
2018-12-13T07:34:32.664Z,2.57
2018-12-13T07:36:59.879Z,2.50
2018-12-13T07:39:27.215Z,2.41
2018-12-13T07:41:54.329Z,2.35
2018-12-13T07:44:21.377Z,2.39
2018-12-13T07:46:48.544Z,2.36
2018-12-13T07:49:15.777Z,2.33
2018-12-13T07:51:42.871Z,2.25
2018-12-13T07:54:09.953Z,2.32
2018-12-13T07:56:37.137Z,1.84
2018-12-13T07:59:04.322Z,2.44
2018-12-13T08:01:32.602Z,2.42
2018-12-13T08:03:59.943Z,2.39
2018-12-13T08:06:27.066Z,2.37
2018-12-13T08:08:54.260Z,2.34
2018-12-13T08:11:21.414Z,2.41
2018-12-13T08:13:48.619Z,2.38
2018-12-13T08:16:15.799Z,2.41
2018-12-13T08:18:43.006Z,2.27
2018-12-13T08:21:10.116Z,2.27
2018-12-13T08:23:37.472Z,2.11
2018-12-13T08:26:04.612Z,2.06
2018-12-13T08:28:31.789Z,2.11
2018-12-13T08:30:59.001Z,2.08
2018-12-13T08:33:26.401Z,2.17
2018-12-13T08:35:53.988Z,2.13
2018-12-13T08:38:27.052Z,2.10
2018-12-13T08:40:50.359Z,2.14
2018-12-13T08:43:17.451Z,2.05
2018-12-13T08:45:44.524Z,2.11
2018-12-13T08:48:12.369Z,2.13
2018-12-13T08:50:39.555Z,2.26
2018-12-13T08:53:06.714Z,2.33
2018-12-13T08:55:33.904Z,2.36
2018-12-13T08:58:01.716Z,2.37
2018-12-13T09:00:28.895Z,2.45
2018-12-13T09:02:56.659Z,2.45
2018-12-13T09:05:23.733Z,2.55
2018-12-13T09:07:50.810Z,2.55
2018-12-13T09:10:18.055Z,2.52
2018-12-13T09:12:45.282Z,2.58
2018-12-13T09:15:12.411Z,2.54
2018-12-13T09:17:39.499Z,2.64
2018-12-13T09:20:06.687Z,2.67
2018-12-13T09:22:33.762Z,2.67
2018-12-13T09:25:02.447Z,2.64
2018-12-13T09:27:29.617Z,2.77
2018-12-13T09:29:56.897Z,2.82
2018-12-13T09:32:24.035Z,2.83
2018-12-13T09:34:52.136Z,2.79
2018-12-13T09:37:19.281Z,2.77
2018-12-13T09:39:46.466Z,2.73
2018-12-13T09:42:13.543Z,2.75
2018-12-13T09:44:40.748Z,2.80
2018-12-13T09:47:07.831Z,2.82
2018-12-13T09:49:34.880Z,2.83
2018-12-13T09:52:02.014Z,2.94
2018-12-13T09:54:30.127Z,2.93
2018-12-13T09:56:57.302Z,3.04
2018-12-13T09:59:25.133Z,3.13
2018-12-13T10:01:52.308Z,3.13
2018-12-13T10:04:19.508Z,3.08
2018-12-13T10:06:46.767Z,3.12
2018-12-13T10:09:13.939Z,3.16
2018-12-13T10:11:42.173Z,2.71
2018-12-13T10:14:09.822Z,3.19
2018-12-13T10:16:37.712Z,3.24
2018-12-13T10:19:05.832Z,3.28
2018-12-13T10:21:32.981Z,3.41
2018-12-13T10:24:01.413Z,3.51
2018-12-13T10:26:29.293Z,3.49
2018-12-13T10:28:57.307Z,3.57
2018-12-13T10:31:24.499Z,3.59
2018-12-13T10:33:51.744Z,3.67
2018-12-13T10:36:19.238Z,3.63
2018-12-13T10:38:52.800Z,3.53
2018-12-13T10:41:15.545Z,3.21
2018-12-13T10:43:42.699Z,3.59
2018-12-13T10:46:09.822Z,3.39
2018-12-13T10:48:37.226Z,3.46
2018-12-13T10:51:04.420Z,3.43
2018-12-13T10:53:31.540Z,3.29
2018-12-13T10:55:59.693Z,3.42
2018-12-13T10:58:27.775Z,3.52
2018-12-13T11:01:00.468Z,3.60
2018-12-13T11:03:34.106Z,3.55
2018-12-13T11:06:01.257Z,3.40
2018-12-13T11:08:28.496Z,3.46
2018-12-13T11:10:55.604Z,3.41
2018-12-13T11:13:22.715Z,3.44
2018-12-13T11:15:50.568Z,3.52
2018-12-13T11:18:17.712Z,3.53
2018-12-13T11:20:44.965Z,3.53
2018-12-13T11:23:12.876Z,3.28
2018-12-13T11:25:39.975Z,3.19
2018-12-13T11:30:21.764Z,3.34
2018-12-13T11:32:49.344Z,3.44
2018-12-13T11:35:16.508Z,3.51
2018-12-13T11:37:43.918Z,3.53
2018-12-13T11:40:11.152Z,3.50
2018-12-13T11:42:38.399Z,3.51
2018-12-13T11:45:05.953Z,3.48
2018-12-13T11:47:33.110Z,3.33
2018-12-13T11:50:00.263Z,3.17
2018-12-13T11:52:27.331Z,3.17
2018-12-13T11:54:55.161Z,3.22
2018-12-13T11:57:22.388Z,3.29
2018-12-13T11:59:50.649Z,3.31
2018-12-13T12:02:23.830Z,3.33
2018-12-13T12:04:47.008Z,3.39
2018-12-13T12:07:14.338Z,3.38
2018-12-13T12:09:41.443Z,3.49
2018-12-13T12:12:08.936Z,3.39
2018-12-13T12:14:36.165Z,3.39
2018-12-13T12:17:03.315Z,3.37
2018-12-13T12:19:31.196Z,3.42
2018-12-13T12:21:58.504Z,3.44
2018-12-13T12:24:26.007Z,3.47
2018-12-13T12:26:56.080Z,3.44
2018-12-13T12:29:23.387Z,3.53
2018-12-13T12:31:51.015Z,3.43
2018-12-13T12:34:18.465Z,3.40
2018-12-13T12:36:45.679Z,3.49
2018-12-13T12:39:18.391Z,3.48
2018-12-13T12:41:43.314Z,3.55
2018-12-13T12:44:11.163Z,3.66
2018-12-13T12:46:38.291Z,3.68
2018-12-13T12:49:05.475Z,3.70
2018-12-13T12:51:32.536Z,3.73
2018-12-13T12:53:59.723Z,3.70
2018-12-13T12:56:26.919Z,3.65
2018-12-13T12:58:54.071Z,3.71
2018-12-13T13:01:21.425Z,3.69
2018-12-13T13:03:49.450Z,3.56
2018-12-13T13:06:16.672Z,3.61
2018-12-13T13:08:43.852Z,3.66
2018-12-13T13:11:11.073Z,3.84
2018-12-13T13:13:38.297Z,4.14
2018-12-13T13:16:05.953Z,4.42
2018-12-13T13:18:39.055Z,4.34
2018-12-13T13:21:03.379Z,4.33
2018-12-13T13:23:30.506Z,4.40
2018-12-13T13:25:57.768Z,4.60
2018-12-13T13:28:24.900Z,4.85
2018-12-13T13:30:52.061Z,4.83
2018-12-13T13:33:19.324Z,4.68
2018-12-13T13:35:46.702Z,4.50
2018-12-13T13:38:14.026Z,4.44
2018-12-13T13:40:41.359Z,4.48
2018-12-13T13:43:08.528Z,4.45
2018-12-13T13:45:35.889Z,4.37
2018-12-13T13:48:03.020Z,4.35
2018-12-13T13:50:30.149Z,4.04
2018-12-13T13:52:57.257Z,4.00
2018-12-13T13:55:24.490Z,4.01
2018-12-13T13:57:52.131Z,3.79
2018-12-13T14:00:19.398Z,4.12
2018-12-13T14:02:46.633Z,3.97
2018-12-13T14:05:14.688Z,4.01
2018-12-13T14:07:41.808Z,3.89
2018-12-13T14:10:08.944Z,3.98
2018-12-13T14:12:36.096Z,4.01
2018-12-13T14:15:05.476Z,4.04
2018-12-13T14:17:32.549Z,4.12
2018-12-13T14:20:01.688Z,4.08
2018-12-13T14:22:28.784Z,4.12
2018-12-13T14:24:56.005Z,3.95
2018-12-13T14:27:23.291Z,3.96
2018-12-13T14:29:50.392Z,3.92
2018-12-13T14:32:18.165Z,3.80
2018-12-13T14:34:45.407Z,3.78
2018-12-13T14:37:12.620Z,3.74
2018-12-13T14:39:44.445Z,3.66
2018-12-13T14:42:09.025Z,3.83
2018-12-13T14:44:36.136Z,3.80
2018-12-13T14:47:03.611Z,3.82
2018-12-13T14:49:30.884Z,3.88
2018-12-13T14:51:58.436Z,3.92
2018-12-13T14:54:25.682Z,3.84
2018-12-13T14:56:53.055Z,3.91
2018-12-13T14:59:20.212Z,4.02
2018-12-13T15:01:47.795Z,3.89
2018-12-13T15:04:15.826Z,3.88
2018-12-13T15:06:42.965Z,3.93
2018-12-13T15:09:10.271Z,3.94
2018-12-13T15:11:37.994Z,3.89
2018-12-13T15:14:05.209Z,3.85
2018-12-13T15:16:34.439Z,3.63
2018-12-13T15:19:01.739Z,3.88
2018-12-13T15:21:30.074Z,3.82
2018-12-13T15:23:57.235Z,3.75
2018-12-13T15:26:24.544Z,3.77
2018-12-13T15:28:52.811Z,3.73
2018-12-13T15:31:20.603Z,3.68
2018-12-13T15:33:47.772Z,3.70
2018-12-13T15:36:15.613Z,3.76
2018-12-13T15:38:42.799Z,3.80
2018-12-13T15:41:10.104Z,3.79
2018-12-13T15:43:37.273Z,3.70
2018-12-13T15:46:05.119Z,3.69
2018-12-13T15:48:32.279Z,3.60
2018-12-13T15:50:59.435Z,3.67
2018-12-13T15:53:27.100Z,3.70
2018-12-13T15:55:54.292Z,3.77
2018-12-13T15:58:21.463Z,3.83
2018-12-13T16:00:48.675Z,3.73
2018-12-13T16:03:15.908Z,3.71
2018-12-13T16:05:43.979Z,3.56
2018-12-13T16:08:11.246Z,3.61
2018-12-13T16:10:38.479Z,3.45
2018-12-13T16:13:06.016Z,3.53
2018-12-13T16:15:33.189Z,3.57
2018-12-13T16:18:00.388Z,3.56
2018-12-13T16:20:27.767Z,3.60
2018-12-13T16:22:55.690Z,3.60
2018-12-13T16:25:22.834Z,3.52
2018-12-13T16:27:49.902Z,3.63
2018-12-13T16:30:18.207Z,3.55
2018-12-13T16:32:45.452Z,3.53
2018-12-13T16:35:13.541Z,3.56
2018-12-13T16:37:40.845Z,3.61
2018-12-13T16:40:10.496Z,3.68
2018-12-13T16:42:37.305Z,3.70
2018-12-13T16:45:04.870Z,3.63
2018-12-13T16:47:31.969Z,3.49
2018-12-13T16:49:59.177Z,3.39
2018-12-13T16:52:27.060Z,3.16
2018-12-13T16:54:54.204Z,3.45
2018-12-13T16:57:21.909Z,3.44
2018-12-13T16:59:49.054Z,3.52
2018-12-13T17:02:16.276Z,3.57
2018-12-13T17:04:43.556Z,3.59
2018-12-13T17:07:11.112Z,3.48
2018-12-13T17:09:38.344Z,3.37
2018-12-13T17:12:05.604Z,3.40
2018-12-13T17:14:32.816Z,2.43
2018-12-13T17:17:00.005Z,3.43
2018-12-13T17:19:27.135Z,3.45
2018-12-13T17:21:54.277Z,3.54
2018-12-13T17:24:22.316Z,3.62
2018-12-13T17:26:49.566Z,3.59
2018-12-13T17:29:16.690Z,3.49
2018-12-13T17:31:45.974Z,3.34
2018-12-13T17:34:13.330Z,3.29
2018-12-13T17:36:41.785Z,3.33
2018-12-13T17:39:10.516Z,3.41
2018-12-13T17:41:39.292Z,3.49
2018-12-13T17:44:08.096Z,3.56
2018-12-13T17:46:35.857Z,3.68
2018-12-13T17:49:04.323Z,3.62
2018-12-13T17:51:33.578Z,3.58
2018-12-13T17:54:02.400Z,3.48
2018-12-13T17:56:30.142Z,3.32
2018-12-13T17:58:57.687Z,3.42
2018-12-13T18:01:26.064Z,3.48
2018-12-13T18:03:53.855Z,3.49
2018-12-13T18:06:21.572Z,3.53
2018-12-13T18:08:50.287Z,3.53
2018-12-13T18:11:18.853Z,3.59
2018-12-13T18:13:47.104Z,3.42
2018-12-13T18:16:15.280Z,3.42
2018-12-13T18:18:42.854Z,3.52
2018-12-13T18:21:10.085Z,3.59
2018-12-13T18:23:37.161Z,3.41
2018-12-13T18:26:04.210Z,3.19
2018-12-13T18:28:31.312Z,3.14
2018-12-13T18:30:58.412Z,3.23
2018-12-13T18:33:25.528Z,3.23
2018-12-13T18:35:52.662Z,3.28
2018-12-13T18:38:19.966Z,3.32
2018-12-13T18:40:47.033Z,3.46
2018-12-13T18:43:14.052Z,3.53
2018-12-13T18:45:41.161Z,3.61
2018-12-13T18:48:08.305Z,3.64
2018-12-13T18:50:35.492Z,3.32
2018-12-13T18:53:02.727Z,3.30
2018-12-13T18:55:30.043Z,3.35
2018-12-13T18:57:57.133Z,3.12
2018-12-13T19:00:24.348Z,3.22
2018-12-13T19:02:51.532Z,3.37
2018-12-13T19:05:18.781Z,3.30
2018-12-13T19:07:45.930Z,3.22
2018-12-13T19:10:13.080Z,3.28
2018-12-13T19:12:41.399Z,3.38
2018-12-13T19:15:08.616Z,3.31
2018-12-13T19:17:35.861Z,3.27
2018-12-13T19:20:05.261Z,3.35
2018-12-13T19:22:32.494Z,3.38
2018-12-13T19:24:59.639Z,3.39
2018-12-13T19:27:27.024Z,3.37
2018-12-13T19:29:54.134Z,3.42
2018-12-13T19:32:21.292Z,3.46
2018-12-13T19:34:49.256Z,3.48
2018-12-13T19:37:16.495Z,3.43
2018-12-13T19:39:43.644Z,3.54
2018-12-13T19:42:10.819Z,3.66
2018-12-13T19:44:39.779Z,3.65
2018-12-13T19:47:07.191Z,3.77
2018-12-13T19:49:34.368Z,3.76
2018-12-13T19:52:01.453Z,3.78
2018-12-13T19:54:28.629Z,3.82
2018-12-13T19:56:55.805Z,3.83
2018-12-13T19:59:22.927Z,3.70
2018-12-13T20:01:50.069Z,3.73
2018-12-13T20:04:17.170Z,3.62
2018-12-13T20:06:44.366Z,3.46
2018-12-13T20:09:12.190Z,3.52
2018-12-13T20:11:39.324Z,3.58
2018-12-13T20:14:06.555Z,3.69
2018-12-13T20:16:33.661Z,3.68
2018-12-13T20:19:01.608Z,3.69
2018-12-13T20:21:28.873Z,3.58
2018-12-13T20:23:56.139Z,3.52
2018-12-13T20:26:23.244Z,3.47
2018-12-13T20:28:50.573Z,3.19
2018-12-13T20:31:17.933Z,3.21
2018-12-13T20:33:45.205Z,3.40
2018-12-13T20:36:12.345Z,3.54
2018-12-13T20:38:40.268Z,3.67
2018-12-13T20:41:07.450Z,3.58
2018-12-13T20:43:35.294Z,3.47
2018-12-13T20:48:44.779Z,3.59
2018-12-13T20:51:17.307Z,3.53
2018-12-13T20:53:44.971Z,3.58
2018-12-13T20:56:12.093Z,3.68
2018-12-13T20:58:39.389Z,3.76
2018-12-13T21:01:06.512Z,3.68
2018-12-13T21:03:33.724Z,3.64
2018-12-13T21:06:00.926Z,3.51
2018-12-13T21:08:28.651Z,3.57
2018-12-13T21:10:55.879Z,3.54
2018-12-13T21:13:23.044Z,3.66
2018-12-13T21:15:50.383Z,3.64
2018-12-13T21:18:17.535Z,3.57
2018-12-13T21:20:44.925Z,3.80
2018-12-13T21:23:12.232Z,3.87
2018-12-13T21:25:39.325Z,3.59
2018-12-13T21:28:06.555Z,3.73
2018-12-13T21:30:33.698Z,3.81
2018-12-13T21:33:00.796Z,3.77
2018-12-13T21:35:28.151Z,3.77
2018-12-13T21:37:55.337Z,3.56
2018-12-13T21:40:22.443Z,3.51
2018-12-13T21:42:49.646Z,3.62
2018-12-13T21:45:16.969Z,3.73
2018-12-13T21:47:44.133Z,3.78
2018-12-13T21:50:11.264Z,3.71
2018-12-13T21:52:38.417Z,3.65
2018-12-13T21:55:05.505Z,3.48
2018-12-13T21:57:33.306Z,3.59
2018-12-13T22:00:00.523Z,3.47
2018-12-13T22:02:27.625Z,3.51
2018-12-13T22:04:54.709Z,3.40
2018-12-13T22:07:21.818Z,3.48
2018-12-13T22:09:48.872Z,3.74
2018-12-13T22:12:16.011Z,3.79
2018-12-13T22:14:43.107Z,3.87
2018-12-13T22:17:10.306Z,3.87
2018-12-13T22:19:37.384Z,3.82
2018-12-13T22:22:04.552Z,3.89
2018-12-13T22:24:32.058Z,3.82
2018-12-13T22:26:59.141Z,3.96
2018-12-13T22:29:26.328Z,4.01
2018-12-13T22:31:53.765Z,4.10
2018-12-13T22:34:21.058Z,4.04
2018-12-13T22:36:48.560Z,3.80
2018-12-13T22:39:16.169Z,3.80
2018-12-13T22:41:43.315Z,3.72
2018-12-13T22:44:10.421Z,3.84
2018-12-13T22:46:38.175Z,3.75
2018-12-13T22:49:05.324Z,3.77
2018-12-13T22:51:32.485Z,3.85
2018-12-13T22:53:59.572Z,3.88
2018-12-13T22:56:26.733Z,3.93
2018-12-13T22:58:53.910Z,3.83
2018-12-13T23:01:21.152Z,3.81
2018-12-13T23:03:48.488Z,3.90
2018-12-13T23:06:15.605Z,4.03
2018-12-13T23:08:43.676Z,4.08
2018-12-13T23:11:11.287Z,4.05
2018-12-13T23:13:38.409Z,4.09
2018-12-13T23:16:05.572Z,3.80
2018-12-13T23:18:33.204Z,4.06
2018-12-13T23:21:00.275Z,3.89
2018-12-13T23:23:27.464Z,3.99
2018-12-13T23:25:54.769Z,3.99
2018-12-13T23:28:21.827Z,3.78
2018-12-13T23:30:49.581Z,3.73
2018-12-13T23:33:16.883Z,3.73
2018-12-13T23:35:44.000Z,3.66
2018-12-13T23:38:11.859Z,3.54
2018-12-13T23:40:38.978Z,3.64
2018-12-13T23:43:06.213Z,3.84
2018-12-13T23:45:33.380Z,3.83
2018-12-13T23:48:00.500Z,3.82
2018-12-13T23:50:27.584Z,3.78
2018-12-13T23:52:54.731Z,3.75
2018-12-13T23:55:22.562Z,3.67
2018-12-13T23:57:49.642Z,3.60
